sensor_id;sensor_type;location;lat;lon;timestamp;pressure;altitude;pressure_sealevel;temperature;humidity
52975;BME280;38839;45.186;5.720;2023-06-26T09:08:12;99261.81;;;36.32;37.08
52975;BME280;38839;45.186;5.720;2023-06-26T09:10:38;99269.34;;;36.79;36.87
52975;BME280;38839;45.186;5.720;2023-06-26T09:13:05;99271.06;;;36.80;36.01
52975;BME280;38839;45.186;5.720;2023-06-26T09:15:37;99276.97;;;35.84;37.28
52975;BME280;38839;45.186;5.720;2023-06-26T09:18:04;99267.53;;;36.04;36.98
52975;BME280;38839;45.186;5.720;2023-06-26T09:20:30;99268.47;;;34.56;39.28
52975;BME280;38839;45.186;5.720;2023-06-26T09:22:58;99271.31;;;36.28;36.94
52975;BME280;38839;45.186;5.720;2023-06-26T09:25:23;99274.75;;;37.12;35.88
52975;BME280;38839;45.186;5.720;2023-06-26T09:27:49;99267.91;;;38.51;33.90
52975;BME280;38839;45.186;5.720;2023-06-26T09:30:17;99264.44;;;38.57;33.17
52975;BME280;38839;45.186;5.720;2023-06-26T09:32:43;99268.66;;;38.60;33.83
52975;BME280;38839;45.186;5.720;2023-06-26T09:35:10;99282.50;;;38.27;33.71
52975;BME280;38839;45.186;5.720;2023-06-26T09:37:35;99263.50;;;36.17;36.64
52975;BME280;38839;45.186;5.720;2023-06-26T09:40:01;99265.06;;;34.08;40.47
52975;BME280;38839;45.186;5.720;2023-06-26T09:42:26;99266.84;;;33.35;42.15
52975;BME280;38839;45.186;5.720;2023-06-26T09:44:52;99260.97;;;33.49;42.42
52975;BME280;38839;45.186;5.720;2023-06-26T09:47:21;99256.72;;;33.09;42.87
52975;BME280;38839;45.186;5.720;2023-06-26T09:49:46;99269.06;;;32.24;44.38
52975;BME280;38839;45.186;5.720;2023-06-26T09:52:14;99261.91;;;31.22;46.42
52975;BME280;38839;45.186;5.720;2023-06-26T09:54:40;99258.22;;;31.54;46.59
52975;BME280;38839;45.186;5.720;2023-06-26T09:57:10;99258.31;;;31.43;47.49
52975;BME280;38839;45.186;5.720;2023-06-26T09:59:36;99259.63;;;31.27;48.05
52975;BME280;38839;45.186;5.720;2023-06-26T10:02:01;99256.69;;;31.31;48.53
52975;BME280;38839;45.186;5.720;2023-06-26T10:04:27;99262.22;;;31.29;48.62
52975;BME280;38839;45.186;5.720;2023-06-26T10:06:55;99255.84;;;31.30;49.00
52975;BME280;38839;45.186;5.720;2023-06-26T10:09:22;99255.84;;;31.30;49.31
52975;BME280;38839;45.186;5.720;2023-06-26T10:12:03;99245.53;;;31.14;50.14
52975;BME280;38839;45.186;5.720;2023-06-26T10:14:34;99243.31;;;30.98;50.41
52975;BME280;38839;45.186;5.720;2023-06-26T10:17:03;99248.03;;;30.85;50.46
52975;BME280;38839;45.186;5.720;2023-06-26T10:19:30;99271.28;;;30.65;51.27
52975;BME280;38839;45.186;5.720;2023-06-26T10:21:58;99246.25;;;30.53;51.79
52975;BME280;38839;45.186;5.720;2023-06-26T10:24:26;99262.72;;;30.60;51.79
52975;BME280;38839;45.186;5.720;2023-06-26T10:26:59;99254.41;;;30.84;51.67
52975;BME280;38839;45.186;5.720;2023-06-26T10:29:27;99243.56;;;30.74;51.82
52975;BME280;38839;45.186;5.720;2023-06-26T10:31:57;99259.16;;;30.38;52.51
52975;BME280;38839;45.186;5.720;2023-06-26T10:34:24;99246.31;;;30.42;52.38
52975;BME280;38839;45.186;5.720;2023-06-26T10:37:03;99238.88;;;30.23;53.15
52975;BME280;38839;45.186;5.720;2023-06-26T10:39:47;99241.44;;;30.24;53.06
52975;BME280;38839;45.186;5.720;2023-06-26T10:42:17;99234.66;;;30.09;53.34
52975;BME280;38839;45.186;5.720;2023-06-26T10:44:45;99237.41;;;30.19;53.70
52975;BME280;38839;45.186;5.720;2023-06-26T10:47:36;99242.34;;;30.14;53.50
52975;BME280;38839;45.186;5.720;2023-06-26T10:55:44;99251.03;;;30.49;53.41
52975;BME280;38839;45.186;5.720;2023-06-26T11:03:44;99233.66;;;30.10;53.93
52975;BME280;38839;45.186;5.720;2023-06-26T11:06:10;99231.53;;;30.25;53.77
52975;BME280;38839;45.186;5.720;2023-06-26T11:11:14;99227.91;;;30.15;54.01
52975;BME280;38839;45.186;5.720;2023-06-26T11:13:40;99225.59;;;30.10;54.08
52975;BME280;38839;45.186;5.720;2023-06-26T11:16:06;99220.81;;;30.14;53.61
52975;BME280;38839;45.186;5.720;2023-06-26T11:18:32;99232.94;;;30.08;53.57
52975;BME280;38839;45.186;5.720;2023-06-26T11:21:11;99214.94;;;30.08;54.18
52975;BME280;38839;45.186;5.720;2023-06-26T11:23:40;99230.34;;;30.18;53.97
52975;BME280;38839;45.186;5.720;2023-06-26T11:26:21;99223.50;;;30.14;53.76
52975;BME280;38839;45.186;5.720;2023-06-26T11:28:54;99233.09;;;29.95;54.18
52975;BME280;38839;45.186;5.720;2023-06-26T11:31:31;99222.47;;;29.94;54.16
52975;BME280;38839;45.186;5.720;2023-06-26T11:33:58;99242.47;;;30.12;53.88
52975;BME280;38839;45.186;5.720;2023-06-26T11:36:24;99232.56;;;30.13;53.87
52975;BME280;38839;45.186;5.720;2023-06-26T11:39:01;99221.84;;;29.90;54.17
52975;BME280;38839;45.186;5.720;2023-06-26T11:41:30;99216.91;;;30.06;54.54
52975;BME280;38839;45.186;5.720;2023-06-26T11:44:00;99214.72;;;30.12;54.32
52975;BME280;38839;45.186;5.720;2023-06-26T11:46:26;99224.53;;;30.01;54.23
52975;BME280;38839;45.186;5.720;2023-06-26T11:48:51;99218.66;;;29.96;54.36
52975;BME280;38839;45.186;5.720;2023-06-26T11:51:17;99221.28;;;30.19;53.55
52975;BME280;38839;45.186;5.720;2023-06-26T11:53:44;99225.16;;;30.37;53.78
52975;BME280;38839;45.186;5.720;2023-06-26T11:56:11;99222.09;;;30.42;53.11
52975;BME280;38839;45.186;5.720;2023-06-26T11:59:07;99219.69;;;30.27;53.09
52975;BME280;38839;45.186;5.720;2023-06-26T12:01:39;99204.88;;;30.22;53.17
52975;BME280;38839;45.186;5.720;2023-06-26T12:04:09;99210.19;;;30.12;52.79
52975;BME280;38839;45.186;5.720;2023-06-26T12:06:36;99224.19;;;29.95;53.18
52975;BME280;38839;45.186;5.720;2023-06-26T12:09:05;99208.84;;;30.06;53.36
52975;BME280;38839;45.186;5.720;2023-06-26T12:11:32;99207.31;;;30.25;53.01
52975;BME280;38839;45.186;5.720;2023-06-26T12:13:58;99210.72;;;30.38;52.82
52975;BME280;38839;45.186;5.720;2023-06-26T12:16:24;99209.34;;;30.44;52.06
52975;BME280;38839;45.186;5.720;2023-06-26T12:18:50;99212.69;;;30.36;52.19
52975;BME280;38839;45.186;5.720;2023-06-26T12:24:08;99203.88;;;30.34;51.82
52975;BME280;38839;45.186;5.720;2023-06-26T12:26:34;99222.81;;;30.44;51.88
52975;BME280;38839;45.186;5.720;2023-06-26T12:29:09;99198.97;;;30.39;52.10
52975;BME280;38839;45.186;5.720;2023-06-26T12:31:49;99206.06;;;30.29;51.75
52975;BME280;38839;45.186;5.720;2023-06-26T12:34:17;99202.31;;;30.32;51.69
52975;BME280;38839;45.186;5.720;2023-06-26T12:36:50;99202.44;;;30.30;51.99
52975;BME280;38839;45.186;5.720;2023-06-26T12:39:20;99205.59;;;30.35;52.05
52975;BME280;38839;45.186;5.720;2023-06-26T12:41:52;99193.84;;;30.25;51.66
52975;BME280;38839;45.186;5.720;2023-06-26T12:44:25;99198.59;;;30.00;52.17
52975;BME280;38839;45.186;5.720;2023-06-26T12:46:55;99207.06;;;29.96;52.42
52975;BME280;38839;45.186;5.720;2023-06-26T12:49:31;99192.38;;;30.00;52.70
52975;BME280;38839;45.186;5.720;2023-06-26T12:51:59;99188.03;;;30.20;52.19
52975;BME280;38839;45.186;5.720;2023-06-26T12:54:25;99190.19;;;30.26;51.82
52975;BME280;38839;45.186;5.720;2023-06-26T12:56:51;99193.72;;;30.26;52.09
52975;BME280;38839;45.186;5.720;2023-06-26T12:59:16;99191.75;;;30.28;52.01
52975;BME280;38839;45.186;5.720;2023-06-26T13:01:42;99186.94;;;30.43;51.96
52975;BME280;38839;45.186;5.720;2023-06-26T13:04:07;99191.16;;;30.36;51.90
52975;BME280;38839;45.186;5.720;2023-06-26T13:06:34;99194.56;;;30.38;51.75
52975;BME280;38839;45.186;5.720;2023-06-26T13:08:59;99217.63;;;30.20;52.36
52975;BME280;38839;45.186;5.720;2023-06-26T13:11:24;99195.66;;;30.03;52.50
52975;BME280;38839;45.186;5.720;2023-06-26T13:13:50;99185.88;;;30.02;52.63
52975;BME280;38839;45.186;5.720;2023-06-26T13:16:16;99183.97;;;30.25;52.53
52975;BME280;38839;45.186;5.720;2023-06-26T13:18:41;99175.63;;;30.28;52.83
52975;BME280;38839;45.186;5.720;2023-06-26T13:21:06;99180.63;;;30.33;52.93
52975;BME280;38839;45.186;5.720;2023-06-26T13:23:32;99173.38;;;30.45;52.50
52975;BME280;38839;45.186;5.720;2023-06-26T13:25:57;99189.84;;;30.52;52.30
52975;BME280;38839;45.186;5.720;2023-06-26T13:28:23;99189.72;;;30.32;52.64
52975;BME280;38839;45.186;5.720;2023-06-26T13:30:48;99185.72;;;30.15;52.56
52975;BME280;38839;45.186;5.720;2023-06-26T13:33:14;99191.84;;;30.17;52.46
52975;BME280;38839;45.186;5.720;2023-06-26T13:35:41;99179.13;;;30.08;52.75
52975;BME280;38839;45.186;5.720;2023-06-26T13:38:06;99196.78;;;30.01;53.08
52975;BME280;38839;45.186;5.720;2023-06-26T13:40:31;99182.31;;;30.13;52.56
52975;BME280;38839;45.186;5.720;2023-06-26T13:42:57;99184.84;;;30.15;52.23
52975;BME280;38839;45.186;5.720;2023-06-26T13:45:22;99175.22;;;30.12;52.75
52975;BME280;38839;45.186;5.720;2023-06-26T13:47:47;99171.16;;;30.18;52.59
52975;BME280;38839;45.186;5.720;2023-06-26T13:50:13;99162.06;;;30.19;52.09
52975;BME280;38839;45.186;5.720;2023-06-26T13:52:38;99165.47;;;30.32;51.59
52975;BME280;38839;45.186;5.720;2023-06-26T13:55:04;99167.72;;;30.48;51.76
52975;BME280;38839;45.186;5.720;2023-06-26T13:57:30;99163.03;;;30.71;51.33
52975;BME280;38839;45.186;5.720;2023-06-26T13:59:56;99165.41;;;30.43;51.11
52975;BME280;38839;45.186;5.720;2023-06-26T14:02:21;99169.63;;;30.36;51.43
52975;BME280;38839;45.186;5.720;2023-06-26T14:04:47;99159.38;;;30.30;51.51
52975;BME280;38839;45.186;5.720;2023-06-26T14:07:12;99161.56;;;30.25;51.22
52975;BME280;38839;45.186;5.720;2023-06-26T14:09:38;99156.88;;;30.38;51.49
52975;BME280;38839;45.186;5.720;2023-06-26T14:12:04;99153.00;;;30.31;51.14
52975;BME280;38839;45.186;5.720;2023-06-26T14:14:30;99142.09;;;30.33;51.69
52975;BME280;38839;45.186;5.720;2023-06-26T14:16:55;99142.38;;;30.51;50.83
52975;BME280;38839;45.186;5.720;2023-06-26T14:19:20;99149.22;;;30.55;50.85
52975;BME280;38839;45.186;5.720;2023-06-26T14:21:46;99142.25;;;30.52;50.40
52975;BME280;38839;45.186;5.720;2023-06-26T14:24:11;99146.56;;;30.43;50.37
52975;BME280;38839;45.186;5.720;2023-06-26T14:26:36;99147.81;;;30.39;50.69
52975;BME280;38839;45.186;5.720;2023-06-26T14:29:02;99139.38;;;30.44;50.39
52975;BME280;38839;45.186;5.720;2023-06-26T14:31:28;99142.22;;;30.31;50.32
52975;BME280;38839;45.186;5.720;2023-06-26T14:33:53;99144.41;;;30.37;50.39
52975;BME280;38839;45.186;5.720;2023-06-26T14:36:19;99139.91;;;30.38;49.92
52975;BME280;38839;45.186;5.720;2023-06-26T14:38:44;99141.66;;;30.48;49.97
52975;BME280;38839;45.186;5.720;2023-06-26T14:41:10;99137.00;;;30.51;49.67
52975;BME280;38839;45.186;5.720;2023-06-26T14:43:36;99149.25;;;30.43;49.90
52975;BME280;38839;45.186;5.720;2023-06-26T14:46:01;99130.41;;;30.43;49.28
52975;BME280;38839;45.186;5.720;2023-06-26T14:48:27;99130.88;;;30.48;49.29
52975;BME280;38839;45.186;5.720;2023-06-26T14:50:52;99138.50;;;30.43;49.23
52975;BME280;38839;45.186;5.720;2023-06-26T14:53:17;99140.41;;;30.32;49.19
52975;BME280;38839;45.186;5.720;2023-06-26T14:55:43;99137.75;;;30.20;49.37
52975;BME280;38839;45.186;5.720;2023-06-26T14:58:08;99143.97;;;30.21;49.41
52975;BME280;38839;45.186;5.720;2023-06-26T15:00:33;99138.75;;;30.19;49.62
52975;BME280;38839;45.186;5.720;2023-06-26T15:02:59;99131.25;;;30.23;49.49
52975;BME280;38839;45.186;5.720;2023-06-26T15:05:24;99128.19;;;30.27;49.46
52975;BME280;38839;45.186;5.720;2023-06-26T15:07:50;99138.78;;;30.29;49.56
52975;BME280;38839;45.186;5.720;2023-06-26T15:10:15;99118.72;;;30.33;49.29
52975;BME280;38839;45.186;5.720;2023-06-26T15:12:42;99129.66;;;30.32;48.98
52975;BME280;38839;45.186;5.720;2023-06-26T15:15:07;99143.22;;;30.30;48.94
52975;BME280;38839;45.186;5.720;2023-06-26T15:17:33;99134.97;;;30.11;49.01
52975;BME280;38839;45.186;5.720;2023-06-26T15:19:59;99130.38;;;30.01;49.02
52975;BME280;38839;45.186;5.720;2023-06-26T15:22:26;99132.78;;;30.04;49.05
52975;BME280;38839;45.186;5.720;2023-06-26T15:24:52;99130.81;;;30.06;49.33
52975;BME280;38839;45.186;5.720;2023-06-26T15:27:17;99124.56;;;30.17;49.24
52975;BME280;38839;45.186;5.720;2023-06-26T15:29:42;99135.97;;;30.09;48.89
52975;BME280;38839;45.186;5.720;2023-06-26T15:32:08;99137.72;;;29.99;48.88
52975;BME280;38839;45.186;5.720;2023-06-26T15:34:33;99132.28;;;30.11;48.72
52975;BME280;38839;45.186;5.720;2023-06-26T15:36:59;99123.75;;;30.05;48.97
52975;BME280;38839;45.186;5.720;2023-06-26T15:39:24;99120.88;;;29.97;48.76
52975;BME280;38839;45.186;5.720;2023-06-26T15:41:49;99125.53;;;29.95;48.91
52975;BME280;38839;45.186;5.720;2023-06-26T15:44:15;99135.28;;;29.96;48.96
52975;BME280;38839;45.186;5.720;2023-06-26T15:46:40;99118.28;;;29.96;48.63
52975;BME280;38839;45.186;5.720;2023-06-26T15:49:05;99116.00;;;29.91;48.43
52975;BME280;38839;45.186;5.720;2023-06-26T15:51:31;99125.03;;;29.90;48.40
52975;BME280;38839;45.186;5.720;2023-06-26T15:53:58;99125.19;;;29.88;49.14
52975;BME280;38839;45.186;5.720;2023-06-26T15:56:24;99120.38;;;29.92;48.96
52975;BME280;38839;45.186;5.720;2023-06-26T15:58:49;99118.06;;;29.99;49.19
52975;BME280;38839;45.186;5.720;2023-06-26T16:01:15;99118.09;;;30.08;48.93
52975;BME280;38839;45.186;5.720;2023-06-26T16:03:41;99115.88;;;29.93;48.90
52975;BME280;38839;45.186;5.720;2023-06-26T16:06:08;99115.53;;;29.86;49.16
52975;BME280;38839;45.186;5.720;2023-06-26T16:08:34;99107.38;;;29.76;49.48
52975;BME280;38839;45.186;5.720;2023-06-26T16:10:59;99117.75;;;29.69;49.53
52975;BME280;38839;45.186;5.720;2023-06-26T16:13:25;99102.38;;;29.72;49.61
52975;BME280;38839;45.186;5.720;2023-06-26T16:15:51;99108.47;;;29.74;49.85
52975;BME280;38839;45.186;5.720;2023-06-26T16:18:17;99116.06;;;29.68;50.32
52975;BME280;38839;45.186;5.720;2023-06-26T16:20:43;99115.31;;;29.66;49.34
52975;BME280;38839;45.186;5.720;2023-06-26T16:23:08;99108.94;;;29.67;49.06
52975;BME280;38839;45.186;5.720;2023-06-26T16:25:34;99104.81;;;29.63;48.59
52975;BME280;38839;45.186;5.720;2023-06-26T16:27:59;99117.06;;;29.56;48.53
52975;BME280;38839;45.186;5.720;2023-06-26T16:30:25;99097.63;;;29.64;48.38
52975;BME280;38839;45.186;5.720;2023-06-26T16:32:50;99106.06;;;29.71;48.69
52975;BME280;38839;45.186;5.720;2023-06-26T16:35:16;99102.63;;;29.68;48.31
52975;BME280;38839;45.186;5.720;2023-06-26T16:37:41;99106.66;;;29.63;48.31
52975;BME280;38839;45.186;5.720;2023-06-26T16:40:07;99101.06;;;29.55;47.95
52975;BME280;38839;45.186;5.720;2023-06-26T16:42:32;99095.22;;;29.49;48.86
52975;BME280;38839;45.186;5.720;2023-06-26T16:44:58;99102.19;;;29.41;48.77
52975;BME280;38839;45.186;5.720;2023-06-26T16:47:24;99106.81;;;29.50;48.79
52975;BME280;38839;45.186;5.720;2023-06-26T16:49:49;99107.56;;;29.41;48.96
52975;BME280;38839;45.186;5.720;2023-06-26T16:52:14;99107.56;;;29.41;49.31
52975;BME280;38839;45.186;5.720;2023-06-26T16:54:41;99112.84;;;29.31;49.18
52975;BME280;38839;45.186;5.720;2023-06-26T16:57:06;99100.66;;;29.27;49.80
52975;BME280;38839;45.186;5.720;2023-06-26T16:59:31;99114.22;;;29.25;49.75
52975;BME280;38839;45.186;5.720;2023-06-26T17:01:57;99112.88;;;29.20;49.58
52975;BME280;38839;45.186;5.720;2023-06-26T17:04:30;99123.38;;;29.23;49.56
52975;BME280;38839;45.186;5.720;2023-06-26T17:06:55;99116.41;;;29.09;49.66
52975;BME280;38839;45.186;5.720;2023-06-26T17:09:21;99118.34;;;29.18;49.51
52975;BME280;38839;45.186;5.720;2023-06-26T17:11:46;99132.78;;;29.17;49.81
52975;BME280;38839;45.186;5.720;2023-06-26T17:14:12;99120.78;;;29.10;50.01
52975;BME280;38839;45.186;5.720;2023-06-26T17:16:37;99131.91;;;29.05;50.26
52975;BME280;38839;45.186;5.720;2023-06-26T17:19:02;99118.56;;;29.04;50.12
52975;BME280;38839;45.186;5.720;2023-06-26T17:21:29;99129.47;;;29.02;50.42
52975;BME280;38839;45.186;5.720;2023-06-26T17:23:54;99134.22;;;28.99;50.09
52975;BME280;38839;45.186;5.720;2023-06-26T17:26:19;99136.41;;;28.94;50.29
52975;BME280;38839;45.186;5.720;2023-06-26T17:28:46;99147.41;;;28.91;50.76
52975;BME280;38839;45.186;5.720;2023-06-26T17:31:11;99134.94;;;28.89;50.79
52975;BME280;38839;45.186;5.720;2023-06-26T17:33:37;99134.22;;;28.87;51.07
52975;BME280;38839;45.186;5.720;2023-06-26T17:36:02;99132.88;;;28.82;50.68
52975;BME280;38839;45.186;5.720;2023-06-26T17:38:29;99139.81;;;28.73;50.38
52975;BME280;38839;45.186;5.720;2023-06-26T17:40:55;99143.97;;;28.66;50.30
52975;BME280;38839;45.186;5.720;2023-06-26T17:43:20;99147.63;;;28.65;50.50
52975;BME280;38839;45.186;5.720;2023-06-26T17:45:47;99145.41;;;28.59;51.10
52975;BME280;38839;45.186;5.720;2023-06-26T17:48:12;99152.97;;;28.54;50.81
52975;BME280;38839;45.186;5.720;2023-06-26T17:50:38;99145.38;;;28.47;50.40
52975;BME280;38839;45.186;5.720;2023-06-26T17:53:03;99159.00;;;28.44;50.76
52975;BME280;38839;45.186;5.720;2023-06-26T17:55:31;99161.22;;;28.39;50.91
52975;BME280;38839;45.186;5.720;2023-06-26T17:57:56;99161.22;;;28.39;50.87
52975;BME280;38839;45.186;5.720;2023-06-26T18:00:22;99142.78;;;28.35;50.58
52975;BME280;38839;45.186;5.720;2023-06-26T18:02:47;99159.22;;;28.30;50.72
52975;BME280;38839;45.186;5.720;2023-06-26T18:05:15;99173.25;;;28.22;50.43
52975;BME280;38839;45.186;5.720;2023-06-26T18:07:41;99167.25;;;28.19;50.82
52975;BME280;38839;45.186;5.720;2023-06-26T18:10:07;99178.19;;;28.16;50.39
52975;BME280;38839;45.186;5.720;2023-06-26T18:12:33;99181.31;;;28.09;50.47
52975;BME280;38839;45.186;5.720;2023-06-26T18:14:58;99188.63;;;28.07;50.71
52975;BME280;38839;45.186;5.720;2023-06-26T18:17:28;99193.88;;;28.09;50.95
52975;BME280;38839;45.186;5.720;2023-06-26T18:19:54;99191.47;;;28.06;50.58
52975;BME280;38839;45.186;5.720;2023-06-26T18:22:19;99193.50;;;28.02;50.77
52975;BME280;38839;45.186;5.720;2023-06-26T18:24:45;99190.28;;;27.97;51.09
52975;BME280;38839;45.186;5.720;2023-06-26T18:27:11;99202.97;;;27.95;51.31
52975;BME280;38839;45.186;5.720;2023-06-26T18:29:37;99196.00;;;27.93;51.20
52975;BME280;38839;45.186;5.720;2023-06-26T18:32:02;99206.25;;;27.87;51.36
52975;BME280;38839;45.186;5.720;2023-06-26T18:34:28;99210.06;;;27.83;51.27
52975;BME280;38839;45.186;5.720;2023-06-26T18:36:53;99212.13;;;27.80;51.24
52975;BME280;38839;45.186;5.720;2023-06-26T18:39:21;99216.00;;;27.76;51.58
52975;BME280;38839;45.186;5.720;2023-06-26T18:41:47;99218.88;;;27.73;51.92
52975;BME280;38839;45.186;5.720;2023-06-26T18:44:13;99226.41;;;27.67;51.92
52975;BME280;38839;45.186;5.720;2023-06-26T18:46:38;99226.63;;;27.64;52.20
52975;BME280;38839;45.186;5.720;2023-06-26T18:49:05;99226.88;;;27.61;52.12
52975;BME280;38839;45.186;5.720;2023-06-26T18:51:31;99240.59;;;27.57;52.07
52975;BME280;38839;45.186;5.720;2023-06-26T18:53:57;99243.59;;;27.52;52.49
52975;BME280;38839;45.186;5.720;2023-06-26T18:56:32;99251.31;;;27.44;52.67
52975;BME280;38839;45.186;5.720;2023-06-26T18:58:58;99246.19;;;27.41;53.08
52975;BME280;38839;45.186;5.720;2023-06-26T19:01:24;99242.97;;;27.36;52.79
52975;BME280;38839;45.186;5.720;2023-06-26T19:03:50;99260.13;;;27.33;53.32
52975;BME280;38839;45.186;5.720;2023-06-26T19:06:15;99264.09;;;27.27;53.24
52975;BME280;38839;45.186;5.720;2023-06-26T19:08:41;99269.59;;;27.26;53.23
52975;BME280;38839;45.186;5.720;2023-06-26T19:11:07;99264.50;;;27.21;53.43
52975;BME280;38839;45.186;5.720;2023-06-26T19:13:33;99265.69;;;27.17;53.46
52975;BME280;38839;45.186;5.720;2023-06-26T19:15:58;99263.44;;;27.11;53.64
52975;BME280;38839;45.186;5.720;2023-06-26T19:18:24;99276.28;;;27.06;53.63
52975;BME280;38839;45.186;5.720;2023-06-26T19:20:49;99274.78;;;27.02;53.81
52975;BME280;38839;45.186;5.720;2023-06-26T19:23:15;99269.63;;;26.99;53.71
52975;BME280;38839;45.186;5.720;2023-06-26T19:25:40;99278.00;;;26.94;53.90
52975;BME280;38839;45.186;5.720;2023-06-26T19:28:06;99273.63;;;26.93;53.98
52975;BME280;38839;45.186;5.720;2023-06-26T19:30:31;99283.44;;;26.93;53.18
52975;BME280;38839;45.186;5.720;2023-06-26T19:32:57;99284.63;;;26.88;53.40
52975;BME280;38839;45.186;5.720;2023-06-26T19:35:23;99287.50;;;26.85;53.82
52975;BME280;38839;45.186;5.720;2023-06-26T19:37:48;99293.28;;;26.79;53.89
52975;BME280;38839;45.186;5.720;2023-06-26T19:40:14;99290.81;;;26.76;53.86
52975;BME280;38839;45.186;5.720;2023-06-26T19:42:39;99300.97;;;26.71;54.29
52975;BME280;38839;45.186;5.720;2023-06-26T19:45:06;99294.88;;;26.69;53.83
52975;BME280;38839;45.186;5.720;2023-06-26T19:47:32;99308.66;;;26.63;54.30
52975;BME280;38839;45.186;5.720;2023-06-26T19:49:58;99299.22;;;26.57;54.57
52975;BME280;38839;45.186;5.720;2023-06-26T19:52:23;99305.72;;;26.53;54.50
52975;BME280;38839;45.186;5.720;2023-06-26T19:54:49;99297.91;;;26.50;54.37
52975;BME280;38839;45.186;5.720;2023-06-26T19:57:14;99315.00;;;26.47;54.36
52975;BME280;38839;45.186;5.720;2023-06-26T19:59:39;99309.84;;;26.44;54.81
52975;BME280;38839;45.186;5.720;2023-06-26T20:02:06;99312.53;;;26.44;54.85
52975;BME280;38839;45.186;5.720;2023-06-26T20:04:31;99310.03;;;26.41;55.10
52975;BME280;38839;45.186;5.720;2023-06-26T20:06:56;99324.59;;;26.37;55.30
52975;BME280;38839;45.186;5.720;2023-06-26T20:09:28;99321.16;;;26.35;55.45
52975;BME280;38839;45.186;5.720;2023-06-26T20:11:53;99321.38;;;26.32;55.08
52975;BME280;38839;45.186;5.720;2023-06-26T20:14:19;99322.44;;;26.29;55.50
52975;BME280;38839;45.186;5.720;2023-06-26T20:16:44;99305.72;;;26.26;55.50
52975;BME280;38839;45.186;5.720;2023-06-26T20:19:09;99311.25;;;26.23;55.75
52975;BME280;38839;45.186;5.720;2023-06-26T20:21:35;99322.16;;;26.20;55.95
52975;BME280;38839;45.186;5.720;2023-06-26T20:24:00;99316.25;;;26.15;56.13
52975;BME280;38839;45.186;5.720;2023-06-26T20:26:25;99317.31;;;26.12;56.36
52975;BME280;38839;45.186;5.720;2023-06-26T20:28:51;99329.38;;;26.05;56.57
52975;BME280;38839;45.186;5.720;2023-06-26T20:31:16;99341.09;;;26.02;56.71
52975;BME280;38839;45.186;5.720;2023-06-26T20:33:41;99326.97;;;26.00;56.56
52975;BME280;38839;45.186;5.720;2023-06-26T20:36:07;99334.06;;;26.01;56.77
52975;BME280;38839;45.186;5.720;2023-06-26T20:38:32;99342.38;;;25.97;56.80
52975;BME280;38839;45.186;5.720;2023-06-26T20:40:58;99345.31;;;25.92;57.39
52975;BME280;38839;45.186;5.720;2023-06-26T20:43:24;99341.09;;;25.88;57.51
52975;BME280;38839;45.186;5.720;2023-06-26T20:45:50;99335.94;;;25.85;57.34
52975;BME280;38839;45.186;5.720;2023-06-26T20:48:15;99340.53;;;25.83;57.50
52975;BME280;38839;45.186;5.720;2023-06-26T20:50:41;99331.94;;;25.78;57.56
52975;BME280;38839;45.186;5.720;2023-06-26T20:53:07;99334.91;;;25.73;57.78
52975;BME280;38839;45.186;5.720;2023-06-26T20:55:32;99325.28;;;25.70;57.76
52975;BME280;38839;45.186;5.720;2023-06-26T20:57:58;99339.69;;;25.68;57.79
52975;BME280;38839;45.186;5.720;2023-06-26T21:00:24;99331.19;;;25.61;58.39
52975;BME280;38839;45.186;5.720;2023-06-26T21:02:49;99334.16;;;25.57;58.37
52975;BME280;38839;45.186;5.720;2023-06-26T21:05:14;99332.81;;;25.49;58.05
52975;BME280;38839;45.186;5.720;2023-06-26T21:07:40;99333.84;;;25.47;58.50
52975;BME280;38839;45.186;5.720;2023-06-26T21:10:06;99332.16;;;25.46;58.40
52975;BME280;38839;45.186;5.720;2023-06-26T21:12:31;99336.13;;;25.39;58.49
52975;BME280;38839;45.186;5.720;2023-06-26T21:14:57;99341.69;;;25.36;58.39
52975;BME280;38839;45.186;5.720;2023-06-26T21:17:22;99340.91;;;25.34;58.78
52975;BME280;38839;45.186;5.720;2023-06-26T21:19:48;99345.66;;;25.28;59.13
52975;BME280;38839;45.186;5.720;2023-06-26T21:22:13;99342.41;;;25.23;59.07
52975;BME280;38839;45.186;5.720;2023-06-26T21:24:39;99341.72;;;25.20;59.08
52975;BME280;38839;45.186;5.720;2023-06-26T21:27:05;99350.00;;;25.15;59.03
52975;BME280;38839;45.186;5.720;2023-06-26T21:29:30;99345.59;;;25.14;58.77
52975;BME280;38839;45.186;5.720;2023-06-26T21:31:56;99344.84;;;25.12;58.58
52975;BME280;38839;45.186;5.720;2023-06-26T21:34:21;99353.03;;;25.09;58.97
52975;BME280;38839;45.186;5.720;2023-06-26T21:36:47;99349.78;;;25.04;58.82
52975;BME280;38839;45.186;5.720;2023-06-26T21:39:13;99351.69;;;25.02;59.07
52975;BME280;38839;45.186;5.720;2023-06-26T21:41:38;99356.25;;;25.00;59.04
52975;BME280;38839;45.186;5.720;2023-06-26T21:44:04;99357.38;;;24.96;59.03
52975;BME280;38839;45.186;5.720;2023-06-26T21:46:30;99358.50;;;24.92;58.66
52975;BME280;38839;45.186;5.720;2023-06-26T21:48:55;99344.41;;;24.89;58.78
52975;BME280;38839;45.186;5.720;2023-06-26T21:51:21;99360.69;;;24.85;59.21
52975;BME280;38839;45.186;5.720;2023-06-26T21:53:46;99361.66;;;24.84;58.76
52975;BME280;38839;45.186;5.720;2023-06-26T21:56:12;99366.31;;;24.80;59.13
52975;BME280;38839;45.186;5.720;2023-06-26T21:58:37;99363.03;;;24.75;59.42
52975;BME280;38839;45.186;5.720;2023-06-26T22:01:06;99364.16;;;24.71;59.23
52975;BME280;38839;45.186;5.720;2023-06-26T22:03:32;99380.28;;;24.69;59.55
52975;BME280;38839;45.186;5.720;2023-06-26T22:05:57;99379.75;;;24.63;59.72
52975;BME280;38839;45.186;5.720;2023-06-26T22:08:23;99375.66;;;24.57;59.91
52975;BME280;38839;45.186;5.720;2023-06-26T22:10:48;99380.28;;;24.54;60.02
52975;BME280;38839;45.186;5.720;2023-06-26T22:13:14;99370.47;;;24.54;59.87
52975;BME280;38839;45.186;5.720;2023-06-26T22:15:39;99383.81;;;24.54;59.83
52975;BME280;38839;45.186;5.720;2023-06-26T22:18:04;99384.97;;;24.48;59.89
52975;BME280;38839;45.186;5.720;2023-06-26T22:20:30;99384.19;;;24.46;59.70